createdAt,value
2022-09-23T00:01:11.133Z,4.76
2022-09-23T00:03:41.785Z,4.72
2022-09-23T00:06:18.227Z,4.66
2022-09-23T00:08:44.819Z,4.59
2022-09-23T00:11:15.284Z,4.59
2022-09-23T00:13:43.847Z,4.55
2022-09-23T00:16:14.073Z,4.52
2022-09-23T00:18:42.019Z,4.48
2022-09-23T00:21:14.532Z,4.45
2022-09-23T00:23:42.968Z,4.42
2022-09-23T00:26:12.417Z,4.38
2022-09-23T00:28:39.139Z,4.44
2022-09-23T00:31:08.797Z,4.39
2022-09-23T00:33:35.551Z,4.37
2022-09-23T00:36:07.799Z,4.38
2022-09-23T00:38:34.631Z,4.35
2022-09-23T00:41:01.375Z,4.40
2022-09-23T00:43:58.763Z,4.41
2022-09-23T00:46:41.293Z,4.37
2022-09-23T00:49:18.374Z,4.35
2022-09-23T00:51:54.495Z,4.32
2022-09-23T00:54:24.496Z,4.32
2022-09-23T00:56:51.655Z,4.34
2022-09-23T00:59:18.250Z,4.32
2022-09-23T01:01:47.299Z,4.34
2022-09-23T01:04:14.811Z,4.36
2022-09-23T01:06:41.507Z,4.42
2022-09-23T01:09:08.285Z,4.46
2022-09-23T01:11:58.383Z,4.72
2022-09-23T01:14:53.908Z,4.85
2022-09-23T01:17:44.790Z,4.94
2022-09-23T01:20:35.932Z,5.08
2022-09-23T01:23:24.325Z,5.08
2022-09-23T01:26:15.807Z,5.05
2022-09-23T01:29:02.496Z,5.07
2022-09-23T01:31:51.122Z,5.10
2022-09-23T01:34:47.205Z,5.05
2022-09-23T01:37:25.681Z,5.08
2022-09-23T01:40:11.986Z,4.96
2022-09-23T01:42:48.060Z,4.97
2022-09-23T01:45:17.419Z,4.91
2022-09-23T01:48:02.026Z,4.83
2022-09-23T01:50:58.291Z,4.73
2022-09-23T01:53:46.347Z,4.64
2022-09-23T01:56:18.632Z,4.54
2022-09-23T01:59:01.565Z,4.42
2022-09-23T02:02:01.638Z,4.40
2022-09-23T02:04:36.701Z,4.35
2022-09-23T02:07:10.251Z,4.28
2022-09-23T02:09:42.624Z,4.20
2022-09-23T02:12:15.343Z,4.11
2022-09-23T02:15:09.133Z,4.11
2022-09-23T02:18:00.860Z,4.06
2022-09-23T02:20:34.560Z,4.02
2022-09-23T02:23:13.133Z,4.01
2022-09-23T02:25:53.144Z,3.96
2022-09-23T02:28:54.466Z,4.01
2022-09-23T02:31:28.665Z,3.98
2022-09-23T02:34:00.312Z,3.96
2022-09-23T02:36:34.670Z,3.98
2022-09-23T02:39:10.329Z,3.98
2022-09-23T02:41:59.381Z,3.95
2022-09-23T02:44:27.255Z,3.93
2022-09-23T02:46:54.889Z,3.89
2022-09-23T02:49:28.193Z,3.86
2022-09-23T02:51:56.444Z,3.84
2022-09-23T02:54:27.218Z,3.84
2022-09-23T02:56:54.385Z,3.75
2022-09-23T02:59:24.391Z,3.75
2022-09-23T03:02:09.545Z,3.74
2022-09-23T03:05:05.206Z,3.72
2022-09-23T03:07:49.527Z,3.67
2022-09-23T03:10:44.727Z,3.61
2022-09-23T03:13:30.428Z,3.60
2022-09-23T03:16:12.048Z,3.61
2022-09-23T03:18:52.794Z,3.55
2022-09-23T03:21:41.002Z,3.52
2022-09-23T03:24:10.848Z,3.53
2022-09-23T03:26:40.772Z,3.47
2022-09-23T03:29:10.320Z,3.45
2022-09-23T03:31:39.785Z,3.43
2022-09-23T03:34:31.229Z,3.45
2022-09-23T03:37:11.391Z,3.48
2022-09-23T03:39:44.584Z,3.43
2022-09-23T03:42:18.429Z,3.40
2022-09-23T03:44:47.062Z,3.40
2022-09-23T03:47:15.442Z,3.39
2022-09-23T03:49:51.566Z,3.33
2022-09-23T03:52:19.995Z,3.27
2022-09-23T03:54:46.716Z,3.35
2022-09-23T03:57:14.024Z,3.33
2022-09-23T03:59:42.631Z,3.30
2022-09-23T04:02:09.615Z,3.30
2022-09-23T04:04:38.928Z,3.25
2022-09-23T04:07:05.957Z,3.25
2022-09-23T04:09:32.666Z,3.27
2022-09-23T04:11:59.395Z,3.24
2022-09-23T04:14:26.007Z,3.27
2022-09-23T04:16:52.651Z,3.25
2022-09-23T04:19:19.370Z,3.24
2022-09-23T04:21:46.425Z,3.26
2022-09-23T04:24:14.722Z,3.27
2022-09-23T04:26:41.331Z,3.32
2022-09-23T04:29:08.306Z,3.34
2022-09-23T04:31:35.121Z,3.37
2022-09-23T04:34:01.831Z,3.37
2022-09-23T04:36:30.276Z,3.43
2022-09-23T04:38:57.315Z,3.45
2022-09-23T04:41:23.874Z,3.49
2022-09-23T04:43:50.471Z,3.56
2022-09-23T04:46:17.162Z,3.60
2022-09-23T04:48:43.866Z,3.64
2022-09-23T04:51:18.311Z,3.65
2022-09-23T04:53:47.049Z,3.65
2022-09-23T04:56:17.527Z,3.74
2022-09-23T04:58:45.563Z,3.82
2022-09-23T05:01:18.275Z,3.88
2022-09-23T05:03:46.572Z,3.98
2022-09-23T05:06:14.737Z,4.04
2022-09-23T05:08:46.272Z,4.10
2022-09-23T05:11:12.892Z,4.09
2022-09-23T05:13:39.471Z,4.20
2022-09-23T05:16:08.887Z,4.30
2022-09-23T05:18:36.341Z,4.40
2022-09-23T05:21:03.457Z,4.48
2022-09-23T05:23:30.487Z,4.53
2022-09-23T05:25:59.246Z,4.72
2022-09-23T05:28:32.906Z,4.78
2022-09-23T05:31:05.344Z,4.89
2022-09-23T05:33:34.066Z,5.03
2022-09-23T05:36:01.722Z,5.17
2022-09-23T05:38:29.667Z,5.31
2022-09-23T05:41:10.962Z,5.42
2022-09-23T05:43:38.063Z,5.57
2022-09-23T05:46:08.405Z,5.83
2022-09-23T05:48:35.535Z,6.02
2022-09-23T05:51:02.364Z,6.26
2022-09-23T05:53:29.760Z,6.46
2022-09-23T05:55:57.666Z,6.77
2022-09-23T05:58:25.047Z,6.93
2022-09-23T06:00:52.130Z,7.16
2022-09-23T06:03:21.341Z,7.46
2022-09-23T06:05:48.506Z,7.58
2022-09-23T06:08:15.541Z,7.68
2022-09-23T06:10:47.859Z,8.27
2022-09-23T06:13:16.269Z,9.10
2022-09-23T06:15:46.217Z,10.65
2022-09-23T06:18:13.025Z,12.10
2022-09-23T06:20:39.732Z,13.76
2022-09-23T06:23:10.671Z,14.79
2022-09-23T06:25:40.906Z,15.05
2022-09-23T06:28:11.533Z,15.90
2022-09-23T06:30:42.660Z,16.60
2022-09-23T06:33:10.083Z,16.94
2022-09-23T06:35:36.961Z,17.44
2022-09-23T06:38:04.985Z,17.69
2022-09-23T06:40:32.003Z,17.93
2022-09-23T06:43:00.359Z,18.37
2022-09-23T06:45:27.854Z,17.90
2022-09-23T06:47:58.157Z,18.23
2022-09-23T06:50:26.316Z,18.75
2022-09-23T06:52:56.424Z,18.57
2022-09-23T06:55:27.991Z,18.92
2022-09-23T06:57:55.661Z,19.12
2022-09-23T07:00:22.243Z,19.88
2022-09-23T07:02:49.064Z,18.63
2022-09-23T07:05:17.290Z,18.36
2022-09-23T07:07:44.753Z,19.65
2022-09-23T07:10:12.442Z,20.24
2022-09-23T07:12:39.215Z,19.74
2022-09-23T07:15:06.496Z,19.47
2022-09-23T07:17:33.062Z,19.79
2022-09-23T07:19:59.881Z,20.37
2022-09-23T07:22:26.871Z,18.80
2022-09-23T07:24:57.182Z,19.36
2022-09-23T07:27:25.409Z,19.54
2022-09-23T07:29:52.237Z,18.97
2022-09-23T07:32:20.178Z,18.97
2022-09-23T07:34:47.302Z,18.68
2022-09-23T07:37:15.535Z,18.10
2022-09-23T07:39:43.293Z,17.45
2022-09-23T07:42:12.467Z,16.53
2022-09-23T07:44:39.492Z,16.53
2022-09-23T07:47:06.270Z,16.05
2022-09-23T07:49:35.470Z,16.35
2022-09-23T07:52:02.552Z,15.63
2022-09-23T07:54:30.039Z,15.64
2022-09-23T07:56:57.174Z,15.72
2022-09-23T07:59:24.092Z,15.68
2022-09-23T08:01:58.035Z,15.99
2022-09-23T08:04:28.284Z,15.36
2022-09-23T08:06:56.469Z,15.79
2022-09-23T08:09:28.466Z,15.56
2022-09-23T08:11:55.473Z,15.40
2022-09-23T08:14:25.173Z,15.55
2022-09-23T08:16:52.299Z,15.71
2022-09-23T08:19:18.984Z,15.65
2022-09-23T08:21:49.916Z,15.61
2022-09-23T08:24:19.339Z,15.76
2022-09-23T08:26:47.167Z,16.30
2022-09-23T08:29:15.357Z,15.97
2022-09-23T08:31:41.993Z,16.52
2022-09-23T08:34:09.011Z,16.86
2022-09-23T08:36:36.335Z,16.59
2022-09-23T08:39:04.178Z,15.91
2022-09-23T08:41:57.496Z,16.16
2022-09-23T08:44:33.089Z,16.33
2022-09-23T08:47:24.124Z,15.85
2022-09-23T08:50:18.039Z,16.02
2022-09-23T08:53:00.707Z,16.80
2022-09-23T08:55:35.735Z,17.05
2022-09-23T08:58:25.874Z,16.59
2022-09-23T09:01:34.403Z,16.33
2022-09-23T09:04:05.771Z,16.29
2022-09-23T09:06:52.214Z,15.92
2022-09-23T09:09:41.833Z,16.54
2022-09-23T09:12:17.294Z,17.18
2022-09-23T09:15:01.612Z,17.40
2022-09-23T09:17:38.435Z,17.50
2022-09-23T09:20:23.821Z,17.47
2022-09-23T09:23:00.159Z,17.70
2022-09-23T09:25:54.533Z,18.12
2022-09-23T09:28:38.871Z,18.41
2022-09-23T09:31:29.961Z,18.80
2022-09-23T09:34:11.435Z,19.53
2022-09-23T09:36:48.099Z,18.98
2022-09-23T09:39:15.633Z,19.31
2022-09-23T09:41:47.806Z,18.90
2022-09-23T09:44:37.159Z,18.32
2022-09-23T09:47:11.659Z,18.74
2022-09-23T09:50:00.760Z,19.28
2022-09-23T09:52:29.678Z,19.05
2022-09-23T09:55:14.376Z,18.68
2022-09-23T09:58:05.836Z,19.10
2022-09-23T10:00:44.644Z,18.44
2022-09-23T10:03:14.253Z,18.22
2022-09-23T10:05:43.795Z,17.59
2022-09-23T10:08:32.420Z,17.77
2022-09-23T10:10:58.891Z,17.69
2022-09-23T10:13:26.588Z,16.60
2022-09-23T10:15:54.943Z,17.18
2022-09-23T10:18:47.076Z,18.16
2022-09-23T10:21:25.467Z,18.85
2022-09-23T10:23:58.292Z,20.03
2022-09-23T10:26:34.471Z,20.48
2022-09-23T10:29:30.001Z,19.82
2022-09-23T10:32:21.712Z,18.65
2022-09-23T10:35:17.045Z,18.74
2022-09-23T10:37:52.867Z,18.25
2022-09-23T10:40:50.196Z,18.19
2022-09-23T10:44:06.951Z,19.37
2022-09-23T10:46:45.893Z,20.53
2022-09-23T10:49:34.948Z,21.16
2022-09-23T10:52:44.640Z,20.12
2022-09-23T10:55:17.293Z,19.74
2022-09-23T10:57:46.550Z,21.36
2022-09-23T11:00:16.192Z,21.82
2022-09-23T11:03:10.780Z,22.11
2022-09-23T11:06:11.301Z,23.06
2022-09-23T11:08:59.236Z,23.67
2022-09-23T11:11:44.730Z,24.05
2022-09-23T11:14:29.979Z,23.90
2022-09-23T11:17:21.901Z,23.49
2022-09-23T11:20:16.441Z,21.65
2022-09-23T11:22:53.059Z,21.04
2022-09-23T11:25:31.420Z,21.41
2022-09-23T11:28:35.416Z,21.58
2022-09-23T11:31:36.415Z,21.38
2022-09-23T11:34:25.234Z,21.10
2022-09-23T11:37:14.122Z,20.85
2022-09-23T11:39:52.239Z,20.50
2022-09-23T11:42:29.795Z,19.79
2022-09-23T11:45:02.293Z,19.69
2022-09-23T11:47:40.000Z,19.40
2022-09-23T11:50:28.636Z,19.55
2022-09-23T11:53:05.340Z,19.73
2022-09-23T11:55:49.773Z,20.04
2022-09-23T11:58:35.232Z,20.03
2022-09-23T12:01:08.346Z,19.87
2022-09-23T12:03:46.756Z,20.55
2022-09-23T12:06:27.064Z,21.24
2022-09-23T12:09:01.349Z,22.13
2022-09-23T12:11:41.167Z,22.73
2022-09-23T12:14:14.364Z,22.47
2022-09-23T12:17:05.530Z,21.51
2022-09-23T12:20:05.485Z,22.46
2022-09-23T12:22:56.455Z,22.72
2022-09-23T12:25:46.668Z,21.91
2022-09-23T12:28:26.233Z,21.75
2022-09-23T12:30:57.455Z,22.12
2022-09-23T12:33:27.722Z,23.01
2022-09-23T12:36:07.928Z,24.22
2022-09-23T12:38:38.846Z,23.22
2022-09-23T12:41:26.599Z,23.16
2022-09-23T12:44:13.559Z,22.91
2022-09-23T12:46:40.863Z,22.38
2022-09-23T12:49:26.703Z,22.20
2022-09-23T12:52:25.242Z,22.77
2022-09-23T12:54:56.582Z,23.64
2022-09-23T12:57:35.202Z,23.66
2022-09-23T13:00:13.005Z,23.17
2022-09-23T13:03:12.280Z,22.89
2022-09-23T13:06:17.200Z,22.60
2022-09-23T13:08:45.559Z,21.25
2022-09-23T13:11:23.730Z,20.51
2022-09-23T13:13:51.564Z,21.77
2022-09-23T13:16:43.619Z,22.42
2022-09-23T13:19:28.506Z,23.16
2022-09-23T13:22:09.163Z,22.25
2022-09-23T13:24:46.456Z,22.36
2022-09-23T13:27:30.147Z,21.31
2022-09-23T13:30:00.623Z,21.04
2022-09-23T13:32:31.920Z,21.40
2022-09-23T13:35:02.009Z,20.96
2022-09-23T13:37:46.214Z,21.27
2022-09-23T13:40:29.576Z,22.35
2022-09-23T13:43:04.345Z,21.77
2022-09-23T13:45:32.383Z,21.56
2022-09-23T13:48:07.427Z,20.68
2022-09-23T13:50:36.579Z,19.86
2022-09-23T13:53:11.745Z,20.24
2022-09-23T13:55:39.643Z,21.36
2022-09-23T13:58:17.383Z,22.22
2022-09-23T14:00:44.535Z,22.27
2022-09-23T14:03:36.871Z,20.90
2022-09-23T14:06:16.678Z,19.94
2022-09-23T14:08:49.855Z,19.73
2022-09-23T14:11:18.809Z,19.05
2022-09-23T14:13:47.158Z,18.79
2022-09-23T14:16:15.705Z,18.34
2022-09-23T14:18:47.793Z,18.44
2022-09-23T14:21:43.742Z,18.17
2022-09-23T14:24:10.317Z,18.28
2022-09-23T14:26:38.497Z,18.13
2022-09-23T14:29:06.677Z,17.95
2022-09-23T14:31:33.449Z,17.91
2022-09-23T14:34:00.052Z,17.36
2022-09-23T14:36:45.538Z,17.65
2022-09-23T14:39:12.701Z,17.25
2022-09-23T14:41:45.228Z,17.40
2022-09-23T14:44:25.104Z,17.29
2022-09-23T14:47:00.042Z,17.04
2022-09-23T14:49:27.530Z,17.11
2022-09-23T14:52:06.917Z,16.80
2022-09-23T14:54:39.784Z,16.66
2022-09-23T14:57:27.337Z,16.83
2022-09-23T15:00:18.260Z,16.76
2022-09-23T15:02:58.859Z,16.60
2022-09-23T15:05:41.998Z,16.52
2022-09-23T15:08:11.958Z,16.36
2022-09-23T15:10:40.164Z,16.13
2022-09-23T15:13:16.795Z,16.05
2022-09-23T15:15:43.949Z,15.89
2022-09-23T15:18:18.795Z,16.01
2022-09-23T15:20:53.966Z,16.00
2022-09-23T15:23:48.078Z,15.97
2022-09-23T15:26:45.685Z,15.84
2022-09-23T15:29:12.762Z,15.90
2022-09-23T15:31:39.444Z,15.97
2022-09-23T15:34:06.119Z,15.93
2022-09-23T15:36:32.774Z,16.13
2022-09-23T15:39:04.324Z,16.17
2022-09-23T15:41:32.381Z,16.21
2022-09-23T15:44:11.490Z,16.17
2022-09-23T15:46:39.914Z,16.11
2022-09-23T15:49:12.877Z,16.01
2022-09-23T15:51:39.512Z,16.02
2022-09-23T15:54:12.067Z,15.87
2022-09-23T15:56:38.622Z,15.70
2022-09-23T15:59:05.249Z,15.70
2022-09-23T16:01:36.073Z,15.56
2022-09-23T16:04:04.481Z,15.58
2022-09-23T16:06:32.499Z,15.74
2022-09-23T16:08:59.048Z,15.58
2022-09-23T16:11:31.100Z,15.69
2022-09-23T16:14:01.102Z,15.70
2022-09-23T16:16:27.933Z,15.67
2022-09-23T16:18:55.316Z,15.61
2022-09-23T16:21:25.810Z,15.53
2022-09-23T16:23:54.488Z,15.33
2022-09-23T16:26:27.460Z,15.37
2022-09-23T16:28:56.693Z,15.20
2022-09-23T16:31:25.495Z,14.99
2022-09-23T16:33:53.309Z,14.98
2022-09-23T16:36:28.911Z,14.77
2022-09-23T16:38:55.837Z,14.46
2022-09-23T16:41:23.786Z,14.34
2022-09-23T16:43:50.995Z,14.10
2022-09-23T16:46:18.581Z,13.88
2022-09-23T16:48:51.407Z,13.88
2022-09-23T16:51:27.435Z,13.57
2022-09-23T16:53:55.461Z,13.30
2022-09-23T16:56:28.252Z,13.20
2022-09-23T16:58:55.867Z,12.99
2022-09-23T17:01:47.076Z,12.81
2022-09-23T17:04:15.657Z,12.61
2022-09-23T17:06:44.138Z,12.37
2022-09-23T17:09:11.993Z,12.18
2022-09-23T17:11:38.568Z,11.97
2022-09-23T17:14:05.641Z,11.84
2022-09-23T17:16:34.612Z,11.68
2022-09-23T17:19:07.142Z,11.61
2022-09-23T17:21:34.195Z,11.43
2022-09-23T17:24:00.935Z,11.27
2022-09-23T17:26:28.048Z,11.20
2022-09-23T17:28:59.453Z,11.02
2022-09-23T17:31:26.260Z,10.86
2022-09-23T17:33:53.352Z,10.71
2022-09-23T17:36:20.727Z,10.62
2022-09-23T17:38:48.671Z,10.43
2022-09-23T17:41:17.237Z,10.41
2022-09-23T17:43:45.347Z,10.17
2022-09-23T17:46:18.271Z,10.16
2022-09-23T17:48:45.613Z,10.00
2022-09-23T17:51:12.099Z,9.92
2022-09-23T17:53:40.057Z,9.85
2022-09-23T17:56:16.090Z,9.66
2022-09-23T17:58:43.666Z,9.64
2022-09-23T18:01:13.364Z,9.54
2022-09-23T18:03:43.481Z,9.60
2022-09-23T18:06:15.779Z,9.36
2022-09-23T18:08:44.169Z,9.30
2022-09-23T18:11:34.961Z,9.26
2022-09-23T18:14:07.685Z,9.15
2022-09-23T18:16:38.078Z,8.98
2022-09-23T18:19:05.044Z,9.01
2022-09-23T18:21:34.034Z,8.93
2022-09-23T18:26:50.912Z,8.72
2022-09-23T18:29:18.311Z,8.71
2022-09-23T18:31:45.487Z,8.67
2022-09-23T18:34:16.170Z,8.57
2022-09-23T18:36:43.560Z,8.47
2022-09-23T18:39:10.116Z,8.41
2022-09-23T18:41:36.698Z,8.40
2022-09-23T18:44:04.305Z,8.35
2022-09-23T18:46:31.417Z,8.26
2022-09-23T18:49:17.615Z,8.22
2022-09-23T18:51:58.476Z,8.23
2022-09-23T18:54:27.641Z,8.11
2022-09-23T18:56:55.047Z,8.06
2022-09-23T18:59:28.987Z,8.00
2022-09-23T19:01:56.248Z,7.97
2022-09-23T19:04:24.864Z,7.91
2022-09-23T19:06:51.573Z,7.86
2022-09-23T19:09:18.937Z,7.80
2022-09-23T19:11:46.298Z,7.78
2022-09-23T19:14:13.238Z,7.74
2022-09-23T19:16:40.743Z,7.64
2022-09-23T19:19:07.878Z,7.57
2022-09-23T19:21:34.932Z,7.54
2022-09-23T19:24:04.676Z,7.54
2022-09-23T19:26:40.265Z,7.50
2022-09-23T19:29:11.823Z,7.46
2022-09-23T19:31:40.136Z,7.42
2022-09-23T19:34:11.904Z,7.37
2022-09-23T19:36:40.965Z,7.39
2022-09-23T19:39:19.427Z,7.28
2022-09-23T19:41:46.650Z,7.26
2022-09-23T19:44:14.087Z,7.20
2022-09-23T19:46:44.394Z,7.14
2022-09-23T19:49:12.146Z,7.10
2022-09-23T19:51:39.041Z,7.08
2022-09-23T19:54:07.465Z,7.03
2022-09-23T19:56:36.958Z,7.01
2022-09-23T19:59:05.873Z,6.93
2022-09-23T20:01:33.290Z,6.88
2022-09-23T20:04:00.192Z,6.89
2022-09-23T20:06:31.534Z,6.86
2022-09-23T20:08:59.554Z,6.84
2022-09-23T20:11:28.552Z,6.79
2022-09-23T20:14:01.644Z,6.70
2022-09-23T20:16:32.187Z,6.70
2022-09-23T20:18:59.960Z,6.65
2022-09-23T20:21:28.214Z,6.60
2022-09-23T20:23:55.000Z,6.58
2022-09-23T20:26:40.325Z,6.53
2022-09-23T20:29:06.907Z,6.52
2022-09-23T20:31:34.587Z,6.42
2022-09-23T20:34:05.538Z,6.43
2022-09-23T20:36:33.284Z,6.39
2022-09-23T20:39:02.207Z,6.36
2022-09-23T20:41:31.313Z,6.34
2022-09-23T20:44:01.364Z,6.31
2022-09-23T20:46:28.989Z,6.25
2022-09-23T20:48:56.828Z,6.21
2022-09-23T20:51:24.798Z,6.17
2022-09-23T20:53:52.967Z,6.13
2022-09-23T20:56:20.885Z,6.07
2022-09-23T20:58:48.698Z,6.06
2022-09-23T21:01:15.845Z,6.04
2022-09-23T21:03:44.835Z,6.02
2022-09-23T21:06:14.029Z,6.01
2022-09-23T21:08:41.765Z,5.96
2022-09-23T21:11:12.180Z,5.94
2022-09-23T21:13:39.351Z,5.90
2022-09-23T21:16:16.150Z,5.86
2022-09-23T21:18:43.586Z,5.84
2022-09-23T21:21:11.525Z,5.80
2022-09-23T21:23:39.095Z,5.73
2022-09-23T21:26:13.867Z,5.72
2022-09-23T21:28:43.019Z,5.69
2022-09-23T21:31:25.425Z,5.69
2022-09-23T21:33:52.286Z,5.65
2022-09-23T21:36:18.827Z,5.63
2022-09-23T21:38:45.496Z,5.64
2022-09-23T21:41:12.519Z,5.62
2022-09-23T21:43:40.244Z,5.58
2022-09-23T21:46:10.062Z,5.54
2022-09-23T21:48:42.434Z,5.52
2022-09-23T21:51:14.338Z,5.51
2022-09-23T21:53:42.158Z,5.43
2022-09-23T21:56:11.730Z,5.41
2022-09-23T21:58:39.834Z,5.41
2022-09-23T22:01:09.058Z,5.36
2022-09-23T22:03:35.740Z,5.34
2022-09-23T22:06:11.112Z,5.29
2022-09-23T22:08:42.664Z,5.30
2022-09-23T22:11:30.877Z,5.23
2022-09-23T22:14:01.938Z,5.23
2022-09-23T22:16:29.936Z,5.21
2022-09-23T22:19:03.400Z,5.15
2022-09-23T22:21:30.725Z,5.12
2022-09-23T22:24:01.134Z,5.07
2022-09-23T22:26:47.959Z,5.06
2022-09-23T22:29:35.292Z,5.03
2022-09-23T22:32:21.849Z,4.98
2022-09-23T22:34:51.956Z,4.93
2022-09-23T22:37:20.933Z,4.93
2022-09-23T22:39:47.544Z,4.88
2022-09-23T22:42:14.440Z,4.87
2022-09-23T22:44:41.046Z,4.86
2022-09-23T22:47:09.232Z,4.82
2022-09-23T22:49:36.008Z,4.74
2022-09-23T22:52:04.103Z,4.72
2022-09-23T22:54:34.007Z,4.72
2022-09-23T22:57:03.288Z,4.70
2022-09-23T22:59:29.903Z,4.66
2022-09-23T23:01:57.167Z,4.66
2022-09-23T23:04:23.905Z,4.58
2022-09-23T23:06:50.969Z,4.57
2022-09-23T23:09:18.763Z,4.55
2022-09-23T23:11:47.154Z,4.55
2022-09-23T23:14:17.101Z,4.47
2022-09-23T23:16:45.913Z,4.45
2022-09-23T23:19:16.979Z,4.46
2022-09-23T23:21:45.173Z,4.40
2022-09-23T23:24:20.920Z,4.36
2022-09-23T23:26:47.981Z,4.35
2022-09-23T23:29:16.603Z,4.37
2022-09-23T23:31:43.480Z,4.34
2022-09-23T23:34:16.237Z,4.29
2022-09-23T23:36:44.070Z,4.27
2022-09-23T23:39:11.156Z,4.20
2022-09-23T23:41:39.515Z,4.18
2022-09-23T23:44:07.779Z,4.18
2022-09-23T23:46:35.379Z,4.11
2022-09-23T23:49:02.042Z,4.14
2022-09-23T23:51:28.756Z,4.11
2022-09-23T23:53:55.968Z,4.00
2022-09-23T23:56:24.399Z,3.99
2022-09-23T23:58:55.698Z,4.00
